Brookings, SD (57007)

4:03 PM CDT on August 27, 2014 (GMT -0500)
Neighborhood | Change Station
CLOSE
Current Station
Personal Weather Station
Location: Brookings, SD
Elevation: 1627 ft
Nearby Weather Stations

Elev 1627 ft 44.29 °N, 96.78 °W | Updated 2 minutes ago

Partly Cloudy
Partly Cloudy
75.0 °F
Feels Like 77 °F
N
3.1
Wind Variable Wind from East
Gusts 4.0 mph

Today
High -- | Low -- °F
--% Chance of Precip.
Yesterday
High -- | Low -- °F
Precip. -- in
6:44 AM 8:12 PM
Waxing Crescent, 5% visible
Pressure 30.13 in
Visibility 10.0 miles
Clouds Few 2400 ft
Heat Index 77 °F
Dew Point 65 °F
Humidity 70%
Rainfall 0.00 in
Snow Depth Not available.
UV 1.2 out of 12
Pollen 2.70 out of 12
Air Quality Not available.
Flu Activity Not available.
METAR KMDS 272050Z AUTO 17009G17KT 10SM FEW024 24/18 A3013 RMK AO2

More Conditions Fewer Conditions

Pressure 30.13 in
Visibility 10.0 miles
Clouds Few 2400 ft
Heat Index 77 °F
Dew Point 65 °F
Humidity 70%
Rainfall 0.00 in
Snow Depth Not available.
UV 1.2 out of 12
Pollen 2.70 out of 12
Air Quality Not available.
Flu Activity Not available.
METAR KMDS 272050Z AUTO 17009G17KT 10SM FEW024 24/18 A3013 RMK AO2

More Conditions Fewer Conditions

10-Day Weather Forecast

Almanac

Astronomy

Aug. 27, 2014 Rise Set
Actual Time 6:44 AM CDT 8:12 PM CDT
Civil Twilight 6:13 AM CDT 8:42 PM CDT
Nautical Twilight 5:37 AM CDT 9:18 PM CDT
Astronomical Twilight 4:58 AM CDT 9:57 PM CDT
Moon 8:47 AM CDT 8:57 PM CDT
Length of Visible Light 14h 28m
Length of Day
13h 27m
Tomorrow will be 2m 53s shorter.
Waxing Crescent, 5% of the Moon is Illuminated
Today
Waxing Crescent
Sep 2
First Quarter
Sep 8
Full
Sep 15
Last Quarter
Sep 24
New

Today's Extremes

State Highs State Lows

Community

WunderPhotos

Upload Photos

1,747,785 photos uploaded!

Nearby

Snow Depth

Station Depth Elevation
Blind Park 0 in 6890 ft

Earthquake Activity

City Distance Mag. Time & Date
No recent earthquake activity has been reported nearby.
Minimum magnitude displayed is 2.5.

Coastal Water Temperatures

Place Temperature
No Stations Reporting

Nearby Weather Stations